Latest Weather Observations for Bushy Park

IDT60801

Issued at 12:01 pm EST Monday 31 August 2015 (issued every 30 minutes, with the page automatically refreshed every 10 minutes)

About weather observations | Map of weather stations | Latest weather observations for TAS | Other Formats
Station Details ID: 095003 Name: BUSHY PARK (BUSHY PARK ESTATES) Lat: -42.71 Lon: 146.90 Height: 27.0 m
Data from the previous 72 hours. | See also: Recent months at Bushy Park
Date/Time
EST
Temp
°C
App
Temp
°C
Dew
Point
Rel
Hum
%
Delta-T
°C
Wind Press
QNH
hPa
Press
MSL
hPa
Rain
since 9 am
mm
Dir
 
Spd
km/h
Gust
km/h
Spd
kts
Gust
kts
31/12:00pm 10.8 8.0 3.3 60 3.3 E 7 11 4 6 - - 0.0
31/11:30am 10.1 7.0 3.8 65 2.8 SSE 9 15 5 8 - - 0.0
31/11:00am 9.5 7.0 4.9 73 2.1 E 7 11 4 6 - - 0.0
31/10:30am 9.0 6.4 4.0 71 2.2 NNE 7 11 4 6 - - 0.0
31/10:00am 8.1 5.6 4.5 78 1.6 SSE 7 9 4 5 - - 0.0
31/09:30am 7.1 4.3 3.4 77 1.6 NNE 7 9 4 5 - - 0.0
31/09:00am 6.0 4.6 3.4 83 1.1 CALM 0 7 0 4 - - 0.0
31/08:30am 5.2 2.6 3.0 86 0.9 NE 6 7 3 4 - - 0.0
31/08:00am 4.9 2.1 3.0 87 0.8 SSW 7 7 4 4 - - 0.0
31/07:30am 3.2 0.4 2.2 93 0.4 WSW 6 7 3 4 - - 0.0
31/07:00am 3.1 0.3 2.1 93 0.4 W 6 9 3 5 - - 0.0
31/06:30am 3.2 0.9 2.5 95 0.3 W 4 7 2 4 - - 0.0
31/06:00am 4.0 2.5 2.8 92 0.5 CALM 0 0 0 0 - - 0.0
31/05:30am 4.3 1.5 3.1 92 0.5 SSW 7 9 4 5 - - 0.0
31/05:00am 4.2 1.6 3.2 93 0.4 SE 6 9 3 5 - - 0.0
31/04:30am 4.3 2.1 3.3 93 0.4 W 4 9 2 5 - - 0.0
31/04:00am 4.3 2.9 3.6 95 0.3 CALM 0 0 0 0 - - 0.0
31/03:30am 4.5 1.8 3.5 93 0.4 S 7 7 4 4 - - 0.0
31/03:00am 4.7 3.3 3.5 92 0.5 CALM 0 0 0 0 - - 0.0
31/02:30am 4.7 3.3 3.5 92 0.5 CALM 0 0 0 0 - - 0.0
31/02:00am 4.8 3.5 3.9 94 0.4 CALM 0 0 0 0 - - 0.0
31/01:30am 5.2 3.5 3.8 91 0.6 SW 2 9 1 5 - - 0.0
31/01:00am 5.1 3.8 3.9 92 0.5 CALM 0 0 0 0 - - 0.0
31/12:30am 5.2 3.1 3.8 91 0.6 WNW 4 7 2 4 - - 0.0
31/12:00am 5.5 3.4 3.9 89 0.7 S 4 7 2 4 - - 0.0
 
Date/Time
EST
Temp
°C
App
Temp
°C
Dew
Point
Rel
Hum
%
Delta-T
°C
Wind Press
QNH
hPa
Press
MSL
hPa
Rain
since 9 am
mm
Dir
 
Spd
km/h
Gust
km/h
Spd
kts
Gust
kts
30/11:30pm 5.4 4.1 4.0 91 0.6 CALM 0 0 0 0 - - 0.0
30/11:00pm 5.2 3.8 3.8 91 0.6 CALM 0 0 0 0 - - 0.0
30/10:30pm 5.3 2.2 3.4 87 0.8 SW 9 13 5 7 - - 0.0
30/10:00pm 5.7 3.0 3.6 86 0.9 SW 7 9 4 5 - - 0.0
30/09:30pm 5.4 1.8 3.0 84 1.0 SW 11 13 6 7 - - 0.0
30/09:00pm 6.5 3.0 3.4 80 1.3 SW 11 15 6 8 - - 0.0
30/08:30pm 7.0 3.4 3.2 77 1.6 WSW 11 13 6 7 - - 0.0
30/08:00pm 7.9 5.4 3.5 74 1.9 SSE 6 9 3 5 - - 0.0
30/07:30pm 7.8 6.5 3.9 76 1.7 CALM 0 4 0 2 - - 0.0
30/07:00pm 8.2 5.5 3.6 73 2.0 ESE 7 9 4 5 - - 0.0
30/06:30pm 8.1 4.2 3.5 73 2.0 SSW 13 15 7 8 - - 0.0
30/06:00pm 8.8 4.8 3.0 67 2.5 SSW 13 15 7 8 - - 0.0
30/05:30pm 9.1 5.1 3.1 66 2.6 SSW 13 15 7 8 - - 0.0
30/05:00pm 9.8 5.3 2.0 58 3.3 S 15 20 8 11 - - 0.0
30/04:30pm 10.5 5.0 1.8 55 3.7 S 20 26 11 14 - - 0.0
30/04:00pm 10.3 4.8 1.8 55 3.6 S 20 28 11 15 - - 0.0
30/03:30pm 11.0 5.6 1.3 51 4.1 S 19 26 10 14 - - 0.0
30/03:00pm 10.9 4.6 1.8 53 3.8 SSW 24 32 13 17 - - 0.0
30/02:30pm 11.1 4.8 1.4 51 4.1 S 24 33 13 18 - - 0.0
30/02:00pm 10.5 3.8 1.5 53 3.8 S 26 33 14 18 - - 0.0
30/01:30pm 11.0 5.5 1.9 53 3.9 S 20 28 11 15 - - 0.0
30/01:00pm 10.2 4.2 1.1 53 3.8 S 22 30 12 16 - - 0.0
30/12:30pm 10.8 5.5 1.9 54 3.8 SSW 19 28 10 15 - - 0.0
30/12:00pm 10.3 6.2 2.1 57 3.5 S 13 19 7 10 - - 0.0
30/11:30am 10.6 5.2 2.5 57 3.5 S 20 32 11 17 - - 0.0
30/11:00am 11.3 6.1 2.3 54 3.9 S 19 33 10 18 - - 0.0
30/10:30am 10.5 6.8 2.1 56 3.6 SE 11 15 6 8 - - 0.0
30/10:00am 8.6 4.6 3.0 68 2.4 S 13 20 7 11 - - 0.0
30/09:30am 8.9 6.1 3.1 67 2.5 E 7 11 4 6 - - 0.0
30/09:00am 7.6 4.9 2.9 72 2.0 N 6 7 3 4 - - 0.0
30/08:30am 6.3 4.0 3.0 79 1.4 N 4 11 2 6 - - 0.0
30/08:00am 6.0 3.4 3.1 82 1.2 NNW 6 9 3 5 - - 0.0
30/07:30am 5.8 2.6 2.9 82 1.2 SSW 9 13 5 7 - - 0.0
30/07:00am 5.2 1.1 2.3 81 1.2 SW 13 19 7 10 - - 0.0
30/06:30am 6.3 2.2 2.4 76 1.6 SSW 13 19 7 10 - - 0.0
30/06:00am 4.7 1.8 2.5 86 0.9 W 7 9 4 5 - - 0.0
30/05:30am 4.9 2.9 2.5 84 1.0 NNE 2 9 1 5 - - 0.0
30/05:00am 5.4 1.7 2.2 80 1.3 WSW 11 17 6 9 - - 0.0
30/04:30am 6.3 0.9 2.7 78 1.5 SW 20 30 11 16 - - 0.0
30/04:00am 6.2 0.4 2.1 75 1.7 SW 22 30 12 16 - - 0.0
30/03:30am 5.1 -0.2 1.9 80 1.3 SW 19 28 10 15 - - 0.0
30/03:00am 4.0 0.5 1.2 82 1.1 WSW 9 13 5 7 - - 0.0
30/02:30am 4.4 0.1 1.1 79 1.3 SW 13 17 7 9 - - 0.0
30/02:00am 3.9 0.4 1.4 84 1.0 SW 9 11 5 6 - - 0.0
30/01:30am 4.2 0.7 1.1 80 1.2 SW 9 11 5 6 - - 0.0
30/01:00am 5.4 2.3 1.4 75 1.6 SSW 7 11 4 6 - - 0.0
30/12:30am 6.6 4.9 2.0 72 1.9 CALM 0 4 0 2 - - 0.0
30/12:00am 7.1 4.5 1.2 66 2.4 S 4 9 2 5 - - 0.0
 
Date/Time
EST
Temp
°C
App
Temp
°C
Dew
Point
Rel
Hum
%
Delta-T
°C
Wind Press
QNH
hPa
Press
MSL
hPa
Rain
since 9 am
mm
Dir
 
Spd
km/h
Gust
km/h
Spd
kts
Gust
kts
29/11:30pm 7.6 3.6 0.6 61 2.8 S 11 17 6 9 - - 0.0
29/11:00pm 7.8 3.4 0.3 59 3.0 SSW 13 20 7 11 - - 0.0
29/10:30pm 7.6 4.1 1.2 64 2.6 SSE 9 17 5 9 - - 0.0
29/10:00pm 7.7 3.7 0.8 61 2.8 SSE 11 19 6 10 - - 0.0
29/09:30pm 7.7 3.8 1.1 63 2.7 SSE 11 15 6 8 - - 0.0
29/09:00pm 7.7 5.6 1.4 64 2.6 SE 2 6 1 3 - - 0.0
29/08:30pm 8.0 3.7 0.9 61 2.9 SSE 13 26 7 14 - - 0.0
29/08:00pm 8.2 2.1 0.5 58 3.1 SE 22 37 12 20 - - 0.0
29/07:36pm 8.3 1.1 0.7 59 3.1 S 28 43 15 23 - - 0.0
29/07:30pm 8.5 4.1 0.3 56 3.3 SE 13 24 7 13 - - 0.0
29/07:00pm 8.5 4.2 0.9 59 3.1 SSE 13 28 7 15 - - 0.0
29/06:30pm 8.5 3.9 1.5 61 2.9 SSE 15 20 8 11 - - 0.0
29/06:00pm 8.5 2.7 2.1 64 2.7 SSE 22 33 12 18 - - 0.0
29/05:30pm 8.7 2.5 2.0 63 2.8 SSW 24 37 13 20 - - 0.0
29/05:00pm 9.0 3.5 2.1 62 2.9 SSW 20 33 11 18 - - 0.0
29/04:30pm 9.3 1.9 2.0 60 3.1 S 30 41 16 22 - - 0.0
29/04:03pm 9.9 2.3 2.7 61 3.1 SSW 32 56 17 30 - - 0.0
29/04:00pm 10.2 3.3 2.8 60 3.2 SSW 28 41 15 22 - - 0.0
29/03:30pm 10.2 2.1 3.4 62 3.0 SSW 35 59 19 32 - - 0.0
29/03:00pm 10.3 2.8 3.2 61 3.1 SSW 32 56 17 30 - - 0.0
29/02:56pm 10.2 1.7 3.1 61 3.1 SSW 37 56 20 30 - - 0.0
29/02:55pm 10.1 1.2 3.0 61 3.1 SW 39 56 21 30 - - 0.0
29/02:40pm 10.2 3.5 3.4 62 3.0 S 28 50 15 27 - - 0.0
29/02:30pm 10.0 4.9 3.1 62 3.0 S 19 41 10 22 - - 0.0
29/02:00pm 11.3 2.6 4.2 61 3.2 SSW 39 59 21 32 - - 0.0
29/01:30pm 10.5 1.4 4.0 64 2.9 S 41 63 22 34 - - 0.0
29/01:03pm 9.8 3.3 4.5 69 2.4 S 28 52 15 28 - - 0.0
29/01:00pm 10.1 4.3 4.3 67 2.6 S 24 48 13 26 - - 0.0
29/12:33pm 10.0 2.2 5.0 71 2.3 SSW 35 54 19 29 - - 0.0
29/12:30pm 9.9 3.8 4.6 69 2.4 S 26 39 14 21 - - 0.0
29/12:00pm 9.9 4.2 4.8 70 2.3 SSW 24 41 13 22 - - 0.0
29/11:30am 10.5 5.4 4.3 65 2.8 SW 20 35 11 19 - - 0.0
29/11:00am 10.5 6.1 4.8 68 2.6 S 17 26 9 14 - - 0.0
29/10:30am 10.7 6.6 4.5 65 2.8 S 15 26 8 14 - - 0.0
29/10:00am 10.8 7.4 6.1 73 2.2 WSW 13 28 7 15 - - 0.0
29/09:30am 9.1 4.3 5.8 80 1.5 SW 20 37 11 20 - - 0.0
29/09:00am 6.6 3.5 5.7 94 0.4 S 11 24 6 13 - - 24.0
29/08:30am 5.2 2.7 4.7 97 0.2 WNW 7 13 4 7 - - 23.8
29/08:00am 4.7 2.1 4.2 97 0.2 W 7 15 4 8 - - 23.8
29/07:30am 4.1 2.3 3.6 97 0.2 N 2 7 1 4 - - 23.4
29/07:00am 3.9 1.3 3.2 95 0.3 S 6 11 3 6 - - 23.0
29/06:30am 3.7 2.2 3.2 97 0.2 CALM 0 0 0 0 - - 22.2
29/06:00am 3.6 1.7 3.1 97 0.2 N 2 7 1 4 - - 20.8
29/05:30am 3.6 0.8 3.1 97 0.2 N 7 13 4 7 - - 18.8
29/05:00am 3.4 0.6 2.9 97 0.2 SW 7 11 4 6 - - 17.6
29/04:30am 3.4 0.5 2.7 95 0.3 S 7 11 4 6 - - 17.0
29/04:00am 3.3 1.4 2.6 95 0.3 SE 2 9 1 5 - - 16.2
29/03:30am 3.2 0.5 2.5 95 0.3 WSW 6 7 3 4 - - 15.8
29/03:00am 3.2 -0.1 2.2 93 0.4 NNE 9 13 5 7 - - 15.6
29/02:30am 3.3 0.4 2.8 97 0.2 NNW 7 13 4 7 - - 15.4
29/02:00am 3.3 0.6 2.8 97 0.2 N 6 9 3 5 - - 14.4
29/01:30am 3.6 0.6 2.1 90 0.6 N 7 11 4 6 - - 12.2
29/01:00am 3.6 0.6 2.1 90 0.6 W 7 13 4 7 - - 10.6
29/12:30am 3.2 -0.6 1.9 91 0.5 NNW 11 17 6 9 - - 9.0
29/12:00am 2.7 -0.6 2.2 96 0.2 NW 9 13 5 7 - - 7.8
 
Date/Time
EST
Temp
°C
App
Temp
°C
Dew
Point
Rel
Hum
%
Delta-T
°C
Wind Press
QNH
hPa
Press
MSL
hPa
Rain
since 9 am
mm
Dir
 
Spd
km/h
Gust
km/h
Spd
kts
Gust
kts
28/11:30pm 2.9 0.5 2.1 94 0.3 NNW 4 7 2 4 - - 6.6
28/11:00pm 2.5 0.1 2.0 96 0.2 WSW 4 9 2 5 - - 6.4
28/10:30pm 3.1 -0.3 1.8 91 0.5 NNW 9 15 5 8 - - 6.4
28/10:00pm 3.3 -1.2 2.0 91 0.5 N 15 22 8 12 - - 6.2
28/09:30pm 3.0 0.0 2.0 93 0.4 N 7 13 4 7 - - 6.0
28/09:00pm 3.2 -0.7 1.1 86 0.8 NW 11 20 6 11 - - 5.4
28/08:30pm 3.2 -1.1 1.1 86 0.8 WNW 13 28 7 15 - - 4.8
28/08:00pm 3.6 -0.7 1.3 85 0.9 WSW 13 20 7 11 - - 3.6
28/07:30pm 3.6 -1.0 1.3 85 0.9 WSW 15 26 8 14 - - 3.4
28/07:00pm 5.3 1.5 -0.8 65 2.3 SSW 9 15 5 8 - - 2.6
28/06:30pm 4.7 -0.3 -1.2 65 2.2 WSW 15 24 8 13 - - 2.6
28/06:00pm 4.6 0.8 -1.0 67 2.1 S 9 13 5 7 - - 2.6
28/05:30pm 5.3 -0.1 -1.4 62 2.5 SSW 17 24 9 13 - - 2.6
28/05:00pm 6.1 0.7 -1.3 59 2.8 SSW 17 26 9 14 - - 2.6
28/04:33pm 6.3 -1.6 -1.7 56 3.0 SW 30 48 16 26 - - 2.6
28/04:30pm 6.4 -1.5 -1.9 55 3.1 SW 30 46 16 25 - - 2.6
28/04:22pm 7.3 -1.7 -2.7 49 3.7 SW 35 46 19 25 - - 2.6
28/04:00pm 6.7 1.5 0.1 63 2.6 S 17 26 9 14 - - 2.6
28/03:37pm 7.4 -0.5 -1.9 51 3.5 SSW 30 54 16 29 - - 2.4
28/03:30pm 8.1 0.3 -0.5 54 3.3 SSW 30 43 16 23 - - 2.4
28/03:00pm 8.9 2.3 -0.4 52 3.7 S 24 39 13 21 - - 2.4
28/02:30pm 7.9 1.4 0.4 59 3.0 S 24 43 13 23 - - 2.4
28/02:00pm 5.3 -1.7 2.1 80 1.3 SSE 28 37 15 20 - - 2.4
28/01:45pm 7.2 -0.1 2.4 71 2.0 S 30 50 16 27 - - 2.2
28/01:38pm 7.6 -0.1 2.4 69 2.2 S 32 43 17 23 - - 2.2
28/01:30pm 6.5 1.8 3.2 79 1.4 SW 17 24 9 13 - - 2.2
28/01:00pm 6.2 2.1 2.3 76 1.6 SW 13 24 7 13 - - 1.6
28/12:30pm 5.3 -2.5 1.8 78 1.4 SSE 32 43 17 23 - - 1.0
28/12:25pm 6.0 -1.7 2.1 76 1.6 SSE 32 43 17 23 - - 0.8

Other Formats:

Comma delimited format used in spreadsheet applications
http://www.bom.gov.au/fwo/IDT60801/IDT60801.94964.axf

JavaScript Object Notation format (JSON) in row-major order
http://www.bom.gov.au/fwo/IDT60801/IDT60801.94964.json